createdAt,value
2023-04-25T00:00:50.044Z,3.30
2023-04-25T00:02:48.442Z,3.20
2023-04-25T00:04:42.117Z,3.30
2023-04-25T00:06:37.341Z,3.20
2023-04-25T00:08:31.553Z,3.10
2023-04-25T00:10:24.671Z,2.90
2023-04-25T00:12:18.234Z,3.40
2023-04-25T00:14:11.047Z,3.10
2023-04-25T00:16:04.181Z,3.00
2023-04-25T00:17:57.939Z,3.20
2023-04-25T00:19:51.461Z,3.00
2023-04-25T00:21:47.387Z,3.20
2023-04-25T00:23:40.643Z,2.70
2023-04-25T00:25:33.479Z,2.70
2023-04-25T00:27:26.326Z,2.70
2023-04-25T00:29:19.110Z,2.70
2023-04-25T00:31:12.043Z,2.40
2023-04-25T00:33:05.450Z,2.60
2023-04-25T00:34:59.145Z,2.60
2023-04-25T00:36:51.986Z,2.60
2023-04-25T00:38:44.831Z,2.70
2023-04-25T00:40:37.775Z,2.50
2023-04-25T00:42:32.056Z,2.40
2023-04-25T00:44:25.739Z,2.60
2023-04-25T00:46:18.993Z,2.60
2023-04-25T00:48:12.756Z,2.50
2023-04-25T00:50:06.728Z,3.20
2023-04-25T00:52:00.281Z,2.70
2023-04-25T00:53:53.952Z,2.80
2023-04-25T00:55:47.198Z,3.00
2023-04-25T00:57:41.071Z,2.80
2023-04-25T00:59:34.778Z,3.00
2023-04-25T01:01:27.926Z,2.60
2023-04-25T01:03:22.131Z,2.30
2023-04-25T01:05:15.038Z,2.90
2023-04-25T01:07:08.168Z,2.50
2023-04-25T01:09:01.111Z,2.30
2023-04-25T01:10:54.480Z,2.80
2023-04-25T01:12:48.138Z,2.50
2023-04-25T01:14:41.300Z,2.70
2023-04-25T01:16:34.304Z,2.50
2023-04-25T01:18:28.010Z,2.70
2023-04-25T01:20:24.057Z,2.40
2023-04-25T01:22:18.203Z,2.60
2023-04-25T01:24:11.152Z,2.60
2023-04-25T01:26:05.022Z,2.80
2023-04-25T01:27:59.733Z,2.80
2023-04-25T01:29:53.376Z,2.50
2023-04-25T01:31:47.783Z,2.60
2023-04-25T01:33:40.922Z,2.60
2023-04-25T01:35:33.754Z,2.50
2023-04-25T01:37:26.711Z,2.90
2023-04-25T01:39:20.778Z,2.60
2023-04-25T01:41:14.343Z,2.60
2023-04-25T01:43:09.521Z,3.10
2023-04-25T01:45:03.210Z,3.40
2023-04-25T01:46:56.360Z,3.20
2023-04-25T01:48:49.411Z,3.10
2023-04-25T01:50:42.668Z,3.60
2023-04-25T01:52:35.726Z,3.60
2023-04-25T01:54:28.770Z,3.50
2023-04-25T01:56:22.230Z,3.50
2023-04-25T01:58:15.080Z,3.40
2023-04-25T02:00:26.557Z,3.30
2023-04-25T02:02:19.578Z,3.30
2023-04-25T02:04:12.714Z,3.60
2023-04-25T02:06:06.935Z,3.90
2023-04-25T02:08:03.261Z,3.60
2023-04-25T02:09:56.335Z,3.30
2023-04-25T02:11:50.285Z,3.30
2023-04-25T02:14:03.419Z,3.60
2023-04-25T02:16:05.754Z,3.50
2023-04-25T02:17:59.097Z,3.40
2023-04-25T02:19:52.083Z,3.80
2023-04-25T02:21:45.031Z,3.70
2023-04-25T02:23:38.181Z,6.00
2023-04-25T02:25:31.246Z,5.70
2023-04-25T02:27:24.541Z,7.00
2023-04-25T02:29:17.651Z,5.70
2023-04-25T02:31:10.517Z,4.10
2023-04-25T02:33:03.490Z,4.20
2023-04-25T02:34:56.487Z,4.70
2023-04-25T02:36:51.906Z,4.10
2023-04-25T02:38:44.758Z,4.20
2023-04-25T02:40:37.693Z,4.10
2023-04-25T02:42:31.361Z,3.80
2023-04-25T02:44:24.227Z,4.00
2023-04-25T02:46:22.879Z,3.60
2023-04-25T02:48:21.764Z,3.80
2023-04-25T02:50:15.336Z,4.00
2023-04-25T02:52:08.588Z,3.70
2023-04-25T02:54:01.565Z,4.00
2023-04-25T02:55:54.889Z,3.60
2023-04-25T02:57:47.736Z,3.70
2023-04-25T02:59:45.925Z,3.80
2023-04-25T03:01:38.750Z,3.90
2023-04-25T03:03:31.679Z,4.20
2023-04-25T03:05:24.661Z,4.00
2023-04-25T03:07:17.495Z,5.40
2023-04-25T03:09:10.459Z,4.30
2023-04-25T03:11:03.400Z,4.80
2023-04-25T03:12:56.242Z,4.50
2023-04-25T03:14:49.088Z,4.60
2023-04-25T03:16:42.150Z,5.60
2023-04-25T03:18:35.082Z,5.20
2023-04-25T03:20:28.237Z,5.10
2023-04-25T03:22:21.185Z,6.00
2023-04-25T03:24:14.134Z,4.80
2023-04-25T03:26:07.081Z,5.50
2023-04-25T03:28:00.035Z,6.30
2023-04-25T03:29:52.980Z,6.30
2023-04-25T03:31:46.814Z,6.00
2023-04-25T03:33:39.802Z,6.50
2023-04-25T03:35:32.746Z,7.10
2023-04-25T03:37:25.912Z,6.60
2023-04-25T03:39:18.853Z,6.60
2023-04-25T03:41:14.354Z,5.90
2023-04-25T03:43:20.575Z,6.20
2023-04-25T03:45:21.342Z,5.80
2023-04-25T03:47:14.293Z,6.00
2023-04-25T03:49:07.244Z,6.50
2023-04-25T03:51:17.084Z,6.20
2023-04-25T03:53:10.956Z,7.70
2023-04-25T03:55:23.766Z,7.70
2023-04-25T03:57:16.923Z,7.90
2023-04-25T03:59:10.175Z,7.30
2023-04-25T04:01:09.029Z,7.10
2023-04-25T04:03:04.296Z,7.10
2023-04-25T04:04:59.607Z,7.20
2023-04-25T04:06:54.051Z,7.90
2023-04-25T04:08:52.733Z,8.00
2023-04-25T04:10:45.682Z,8.00
2023-04-25T04:12:39.449Z,10.80
2023-04-25T04:14:32.311Z,10.70
2023-04-25T04:16:25.345Z,10.20
2023-04-25T04:18:19.107Z,11.40
2023-04-25T04:20:12.265Z,8.80
2023-04-25T04:22:06.665Z,7.60
2023-04-25T04:24:01.159Z,7.10
2023-04-25T04:25:57.390Z,6.80
2023-04-25T04:27:52.968Z,7.40
2023-04-25T04:30:05.389Z,11.10
2023-04-25T04:32:04.359Z,11.30
2023-04-25T04:33:57.723Z,8.20
2023-04-25T04:35:53.430Z,6.90
2023-04-25T04:37:46.933Z,6.80
2023-04-25T04:39:40.671Z,6.80
2023-04-25T04:41:54.601Z,8.30
2023-04-25T04:44:10.082Z,8.80
2023-04-25T04:46:13.855Z,9.40
2023-04-25T04:48:23.577Z,8.60
2023-04-25T04:50:30.298Z,8.70
2023-04-25T04:52:46.176Z,8.80
2023-04-25T04:55:09.242Z,8.70
2023-04-25T04:57:32.193Z,8.00
2023-04-25T04:59:39.652Z,12.90
2023-04-25T05:02:04.485Z,9.90
2023-04-25T05:04:15.997Z,9.10
2023-04-25T05:06:21.592Z,9.80
2023-04-25T05:08:33.590Z,8.60
2023-04-25T05:10:40.773Z,8.80
2023-04-25T05:12:50.105Z,7.80
2023-04-25T05:14:59.168Z,8.40
2023-04-25T05:17:27.237Z,7.30
2023-04-25T05:19:40.630Z,8.40
2023-04-25T05:21:52.313Z,8.00
2023-04-25T05:23:57.139Z,7.40
2023-04-25T05:25:49.999Z,7.00
2023-04-25T05:28:03.946Z,7.10
2023-04-25T05:30:16.684Z,6.80
2023-04-25T05:32:26.515Z,7.30
2023-04-25T05:34:20.459Z,7.10
2023-04-25T05:36:21.700Z,7.20
2023-04-25T05:38:14.818Z,7.30
2023-04-25T05:40:26.437Z,7.30
2023-04-25T05:42:43.140Z,6.40
2023-04-25T05:44:53.754Z,6.70
2023-04-25T05:46:59.549Z,6.50
2023-04-25T05:49:16.025Z,7.10
2023-04-25T05:51:19.957Z,6.60
2023-04-25T05:53:23.971Z,6.40
2023-04-25T05:55:26.307Z,6.80
2023-04-25T05:57:25.429Z,6.50
2023-04-25T05:59:18.985Z,6.30
2023-04-25T06:01:13.794Z,6.20
2023-04-25T06:03:08.866Z,5.80
2023-04-25T06:05:04.692Z,6.40
2023-04-25T06:06:57.958Z,7.90
2023-04-25T06:08:51.627Z,6.40
2023-04-25T06:10:44.558Z,6.40
2023-04-25T06:12:37.920Z,6.70
2023-04-25T06:14:31.599Z,6.00
2023-04-25T06:16:27.168Z,6.20
2023-04-25T06:18:21.215Z,6.20
2023-04-25T06:20:14.121Z,6.20
2023-04-25T06:22:08.407Z,6.80
2023-04-25T06:24:01.555Z,5.70
2023-04-25T06:25:54.906Z,5.70
2023-04-25T06:27:47.964Z,5.80
2023-04-25T06:29:41.105Z,5.60
2023-04-25T06:31:35.195Z,5.30
2023-04-25T06:33:28.642Z,5.70
2023-04-25T06:35:22.263Z,5.90
2023-04-25T06:37:15.765Z,6.00
2023-04-25T06:39:10.610Z,5.60
2023-04-25T06:41:04.118Z,5.40
2023-04-25T06:42:59.448Z,5.40
2023-04-25T06:45:16.435Z,5.50
2023-04-25T06:47:09.554Z,5.30
2023-04-25T06:49:02.642Z,5.30
2023-04-25T06:50:55.809Z,5.50
2023-04-25T06:52:49.564Z,5.10
2023-04-25T06:54:44.171Z,4.80
2023-04-25T06:56:55.398Z,5.30
2023-04-25T06:58:48.989Z,5.10
2023-04-25T07:00:51.184Z,5.40
2023-04-25T07:02:46.468Z,5.50
2023-04-25T07:04:40.032Z,5.80
2023-04-25T07:06:33.624Z,5.70
2023-04-25T07:08:27.715Z,4.80
2023-04-25T07:10:24.242Z,5.30
2023-04-25T07:12:55.338Z,4.70
2023-04-25T07:14:48.897Z,4.80
2023-04-25T07:16:43.258Z,4.90
2023-04-25T07:18:37.059Z,4.60
2023-04-25T07:20:32.165Z,5.00
2023-04-25T07:22:27.504Z,5.10
2023-04-25T07:24:21.143Z,4.60
2023-04-25T07:26:14.575Z,4.90
2023-04-25T07:28:21.451Z,5.40
2023-04-25T07:30:14.609Z,5.20
2023-04-25T07:32:08.875Z,4.60
2023-04-25T07:34:02.339Z,4.90
2023-04-25T07:35:56.824Z,5.40
2023-04-25T07:37:49.773Z,5.50
2023-04-25T07:39:48.047Z,4.70
2023-04-25T07:41:40.981Z,5.00
2023-04-25T07:43:34.864Z,4.50
2023-04-25T07:45:27.811Z,4.40
2023-04-25T07:47:21.199Z,4.60
2023-04-25T07:49:14.528Z,4.60
2023-04-25T07:51:08.494Z,5.40
2023-04-25T07:53:01.446Z,4.80
2023-04-25T07:55:07.262Z,5.80
2023-04-25T07:57:08.446Z,6.20
2023-04-25T07:59:01.895Z,5.20
2023-04-25T08:00:54.947Z,6.20
2023-04-25T08:02:58.952Z,5.80
2023-04-25T08:04:52.195Z,6.60
2023-04-25T08:06:46.795Z,5.50
2023-04-25T08:08:43.741Z,5.80
2023-04-25T08:10:37.629Z,6.10
2023-04-25T08:12:30.761Z,5.00
2023-04-25T08:14:24.235Z,5.10
2023-04-25T08:16:18.124Z,6.70
2023-04-25T08:18:11.187Z,5.30
2023-04-25T08:20:06.913Z,5.00
2023-04-25T08:22:00.635Z,5.00
2023-04-25T08:23:59.723Z,4.80
2023-04-25T08:25:59.323Z,5.10
2023-04-25T08:27:53.529Z,5.40
2023-04-25T08:29:47.885Z,5.10
2023-04-25T08:31:41.462Z,5.20
2023-04-25T08:33:34.702Z,4.90
2023-04-25T08:35:37.270Z,4.80
2023-04-25T08:37:30.541Z,5.00
2023-04-25T08:39:28.091Z,4.80
2023-04-25T08:41:45.818Z,4.80
2023-04-25T08:43:40.608Z,5.80
2023-04-25T08:45:34.661Z,6.00
2023-04-25T08:47:29.080Z,6.10
2023-04-25T08:49:24.151Z,5.40
2023-04-25T08:51:26.111Z,6.00
2023-04-25T08:53:26.260Z,5.50
2023-04-25T08:55:20.151Z,5.90
2023-04-25T08:57:16.635Z,5.70
2023-04-25T08:59:09.884Z,5.70
2023-04-25T09:01:04.795Z,5.40
2023-04-25T09:03:00.934Z,5.20
2023-04-25T09:04:57.433Z,5.00
2023-04-25T09:06:50.499Z,5.00
2023-04-25T09:08:43.741Z,5.20
2023-04-25T09:10:37.347Z,5.50
2023-04-25T09:12:31.910Z,5.10
2023-04-25T09:14:27.105Z,4.60
2023-04-25T09:17:05.748Z,4.50
2023-04-25T09:19:07.973Z,4.50
2023-04-25T09:21:14.146Z,4.20
2023-04-25T09:23:08.428Z,4.30
2023-04-25T09:25:08.633Z,4.30
2023-04-25T09:27:04.649Z,4.80
2023-04-25T09:29:11.939Z,4.50
2023-04-25T09:31:07.339Z,4.50
2023-04-25T09:33:09.044Z,4.60
2023-04-25T09:35:02.765Z,4.40
2023-04-25T09:36:56.425Z,4.70
2023-04-25T09:39:16.698Z,4.80
2023-04-25T09:41:14.816Z,4.30
2023-04-25T09:43:20.039Z,6.50
2023-04-25T09:45:16.662Z,4.10
2023-04-25T09:47:16.533Z,5.10
2023-04-25T09:49:10.552Z,4.30
2023-04-25T09:51:16.427Z,4.40
2023-04-25T09:53:11.522Z,4.00
2023-04-25T09:55:21.950Z,4.60
2023-04-25T09:57:17.043Z,4.50
2023-04-25T09:59:11.044Z,4.50
2023-04-25T10:01:07.086Z,4.30
2023-04-25T10:05:15.442Z,4.30
2023-04-25T10:07:10.255Z,4.10
2023-04-25T10:09:04.924Z,4.10
2023-04-25T10:11:00.590Z,4.10
2023-04-25T10:12:54.437Z,4.30
2023-04-25T10:14:48.091Z,4.40
2023-04-25T10:16:42.949Z,4.70
2023-04-25T10:18:36.148Z,4.80
2023-04-25T10:20:29.492Z,4.40
2023-04-25T10:22:37.063Z,4.60
2023-04-25T10:24:29.866Z,4.90
2023-04-25T10:26:23.186Z,4.80
2023-04-25T10:28:16.033Z,4.50
2023-04-25T10:30:19.328Z,3.80
2023-04-25T10:32:12.304Z,3.80
2023-04-25T10:34:08.653Z,3.70
2023-04-25T10:36:13.409Z,4.10
2023-04-25T10:38:07.418Z,4.20
2023-04-25T10:40:10.755Z,4.30
2023-04-25T10:42:04.037Z,4.40
2023-04-25T10:44:02.448Z,4.40
2023-04-25T10:45:55.470Z,4.50
2023-04-25T10:47:49.093Z,5.50
2023-04-25T10:49:45.772Z,4.70
2023-04-25T10:51:54.482Z,4.60
2023-04-25T10:53:59.195Z,4.60
2023-04-25T10:55:52.795Z,4.30
2023-04-25T10:57:50.840Z,4.80
2023-04-25T10:59:45.609Z,4.60
2023-04-25T11:01:57.893Z,4.00
2023-04-25T11:03:59.786Z,4.10
2023-04-25T11:05:58.192Z,4.60
2023-04-25T11:08:03.802Z,3.40
2023-04-25T11:10:07.807Z,3.50
2023-04-25T11:12:01.590Z,3.70
2023-04-25T11:13:54.418Z,4.00
2023-04-25T11:16:03.051Z,4.00
2023-04-25T11:18:05.349Z,4.00
2023-04-25T11:19:58.377Z,4.20
2023-04-25T11:21:51.832Z,4.50
2023-04-25T11:23:47.543Z,4.60
2023-04-25T11:25:40.387Z,4.80
2023-04-25T11:27:33.283Z,4.30
2023-04-25T11:29:33.814Z,4.40
2023-04-25T11:31:27.172Z,5.10
2023-04-25T11:33:25.141Z,4.80
2023-04-25T11:35:18.744Z,4.30
2023-04-25T11:37:13.549Z,4.20
2023-04-25T11:39:07.110Z,3.60
2023-04-25T11:41:00.163Z,3.60
2023-04-25T11:42:55.216Z,3.00
2023-04-25T11:44:48.406Z,2.90
2023-04-25T11:46:41.892Z,2.80
2023-04-25T11:48:40.235Z,3.40
2023-04-25T11:50:33.057Z,3.20
2023-04-25T11:52:35.970Z,3.00
2023-04-25T11:54:29.070Z,3.00
2023-04-25T11:56:23.625Z,3.50
2023-04-25T11:58:16.655Z,3.00
2023-04-25T12:00:18.570Z,3.40
2023-04-25T12:02:25.961Z,4.00
2023-04-25T12:04:26.428Z,3.40
2023-04-25T12:06:19.662Z,3.60
2023-04-25T12:08:17.528Z,3.50
2023-04-25T12:10:16.108Z,3.20
2023-04-25T12:12:11.285Z,3.40
2023-04-25T12:14:05.719Z,3.90
2023-04-25T12:15:58.572Z,3.80
2023-04-25T12:17:52.963Z,3.90
2023-04-25T12:19:48.983Z,3.60
2023-04-25T12:21:54.504Z,3.70
2023-04-25T12:23:51.186Z,3.90
2023-04-25T12:25:46.114Z,3.60
2023-04-25T12:27:41.229Z,3.60
2023-04-25T12:29:48.658Z,4.20
2023-04-25T12:33:37.589Z,3.60
2023-04-25T12:35:30.668Z,3.70
2023-04-25T12:37:24.645Z,3.70
2023-04-25T12:39:26.254Z,3.90
2023-04-25T12:41:19.113Z,4.10
2023-04-25T12:43:11.944Z,3.80
2023-04-25T12:45:05.221Z,3.70
2023-04-25T12:46:58.075Z,3.50
2023-04-25T12:48:51.281Z,3.20
2023-04-25T12:50:45.074Z,3.20
2023-04-25T12:52:37.917Z,3.50
2023-04-25T12:54:30.779Z,3.60
2023-04-25T12:56:25.589Z,3.60
2023-04-25T12:58:20.245Z,3.80
2023-04-25T13:00:16.043Z,4.30
2023-04-25T13:02:09.131Z,4.50
2023-04-25T13:04:02.858Z,4.30
2023-04-25T13:05:56.230Z,4.40
2023-04-25T13:08:22.217Z,4.50
2023-04-25T13:10:15.417Z,5.40
2023-04-25T13:12:09.737Z,5.80
2023-04-25T13:14:03.049Z,4.90
2023-04-25T13:15:56.008Z,5.00
2023-04-25T13:17:49.026Z,4.80
2023-04-25T13:19:42.094Z,4.50
2023-04-25T13:21:35.040Z,3.70
2023-04-25T13:23:30.049Z,3.50
2023-04-25T13:25:23.399Z,4.20
2023-04-25T13:27:16.341Z,4.30
2023-04-25T13:29:09.290Z,3.90
2023-04-25T13:31:02.455Z,4.20
2023-04-25T13:32:58.098Z,4.00
2023-04-25T13:34:52.443Z,4.30
2023-04-25T13:36:45.562Z,4.10
2023-04-25T13:38:39.871Z,4.00
2023-04-25T13:40:33.331Z,4.20
2023-04-25T13:42:26.385Z,4.40
2023-04-25T13:44:19.575Z,4.20
2023-04-25T13:46:29.910Z,7.20
2023-04-25T13:48:26.684Z,4.80
2023-04-25T13:50:19.573Z,5.10
2023-04-25T13:52:12.419Z,4.30
2023-04-25T13:54:05.476Z,4.90
2023-04-25T13:55:58.335Z,4.00
2023-04-25T13:57:51.184Z,4.90
2023-04-25T13:59:44.620Z,4.70
2023-04-25T14:01:37.864Z,5.50
2023-04-25T14:03:31.915Z,6.20
2023-04-25T14:05:25.002Z,5.10
2023-04-25T14:07:19.090Z,5.90
2023-04-25T14:09:13.656Z,5.10
2023-04-25T14:11:06.714Z,5.50
2023-04-25T14:12:59.662Z,4.90
2023-04-25T14:14:55.689Z,6.00
2023-04-25T14:16:49.509Z,6.10
2023-04-25T14:18:42.706Z,8.70
2023-04-25T14:20:36.806Z,8.60
2023-04-25T14:22:29.639Z,7.20
2023-04-25T14:24:22.808Z,5.80
2023-04-25T14:26:15.727Z,7.50
2023-04-25T14:28:09.084Z,7.10
2023-04-25T14:30:01.985Z,7.40
2023-04-25T14:31:55.576Z,4.70
2023-04-25T14:33:53.605Z,5.30
2023-04-25T14:35:48.146Z,3.50
2023-04-25T14:37:41.107Z,4.20
2023-04-25T14:39:33.939Z,3.80
2023-04-25T14:41:27.297Z,4.40
2023-04-25T14:43:20.230Z,4.30
2023-04-25T14:45:13.788Z,4.30
2023-04-25T14:47:06.916Z,3.40
2023-04-25T14:49:00.112Z,3.70
2023-04-25T14:50:53.063Z,3.60
2023-04-25T14:52:46.450Z,3.40
2023-04-25T14:54:39.832Z,3.70
2023-04-25T14:56:34.072Z,4.30
2023-04-25T14:58:26.834Z,5.60
2023-04-25T15:00:21.691Z,4.50
2023-04-25T15:02:18.020Z,4.40
2023-04-25T15:04:12.797Z,3.80
2023-04-25T15:06:08.740Z,6.10
2023-04-25T15:08:02.815Z,11.70
2023-04-25T15:09:57.089Z,7.60
2023-04-25T15:11:49.934Z,6.30
2023-04-25T15:13:42.799Z,5.80
2023-04-25T15:15:35.827Z,4.60
2023-04-25T15:17:32.005Z,4.20
2023-04-25T15:19:24.966Z,4.40
2023-04-25T15:21:17.971Z,5.00
2023-04-25T15:23:11.178Z,5.20
2023-04-25T15:25:05.020Z,4.10
2023-04-25T15:26:57.832Z,4.30
2023-04-25T15:28:50.772Z,6.80
2023-04-25T15:30:44.882Z,8.10
2023-04-25T15:32:38.648Z,7.90
2023-04-25T15:34:31.511Z,7.50
2023-04-25T15:36:24.406Z,6.60
2023-04-25T15:38:17.356Z,6.00
2023-04-25T15:40:15.840Z,6.20
2023-04-25T15:42:08.788Z,4.90
2023-04-25T15:44:02.044Z,7.00
2023-04-25T15:45:55.121Z,5.30
2023-04-25T15:47:48.234Z,4.90
2023-04-25T15:49:41.395Z,6.30
2023-04-25T15:51:35.417Z,5.00
2023-04-25T15:53:28.310Z,5.60
2023-04-25T15:55:21.989Z,5.80
2023-04-25T15:57:15.945Z,5.50
2023-04-25T15:59:09.088Z,6.20
2023-04-25T16:01:03.713Z,5.10
2023-04-25T16:02:57.395Z,5.60
2023-04-25T16:04:50.691Z,4.40
2023-04-25T16:06:43.764Z,7.00
2023-04-25T16:08:36.715Z,6.60
2023-04-25T16:10:30.011Z,6.20
2023-04-25T16:12:25.475Z,8.80
2023-04-25T16:14:18.529Z,9.40
2023-04-25T16:16:11.585Z,8.60
2023-04-25T16:18:04.625Z,8.00
2023-04-25T16:19:58.122Z,9.90
2023-04-25T16:21:52.055Z,7.30
2023-04-25T16:23:45.213Z,9.10
2023-04-25T16:25:38.265Z,8.40
2023-04-25T16:27:33.879Z,6.30
2023-04-25T16:29:27.167Z,6.50
2023-04-25T16:31:20.121Z,7.70
2023-04-25T16:33:13.075Z,11.90
2023-04-25T16:35:07.199Z,9.70
2023-04-25T16:37:00.161Z,6.70
2023-04-25T16:38:53.560Z,5.20
2023-04-25T16:40:46.758Z,4.80
2023-04-25T16:42:39.603Z,5.10
2023-04-25T16:44:32.453Z,5.40
2023-04-25T16:46:25.512Z,11.90
2023-04-25T16:48:20.905Z,16.00
2023-04-25T16:50:15.182Z,15.00
2023-04-25T16:52:10.278Z,16.90
2023-04-25T16:54:03.238Z,9.80
2023-04-25T16:55:56.276Z,8.20
2023-04-25T16:57:49.228Z,7.60
2023-04-25T16:59:42.175Z,7.60
2023-04-25T17:01:36.326Z,6.90
2023-04-25T17:03:29.370Z,5.10
2023-04-25T17:05:22.704Z,6.00
2023-04-25T17:07:16.055Z,6.40
2023-04-25T17:09:09.309Z,5.90
2023-04-25T17:11:03.883Z,6.10
2023-04-25T17:12:57.528Z,6.10
2023-04-25T17:14:50.466Z,7.20
2023-04-25T17:16:43.383Z,10.50
2023-04-25T17:18:37.272Z,15.10
2023-04-25T17:20:30.236Z,7.70
2023-04-25T17:22:24.672Z,5.60
2023-04-25T17:24:18.281Z,5.40
2023-04-25T17:26:15.637Z,5.70
2023-04-25T17:28:08.392Z,4.90
2023-04-25T17:30:02.693Z,4.80
2023-04-25T17:31:58.538Z,5.00
2023-04-25T17:33:52.138Z,5.70
2023-04-25T17:35:45.404Z,5.20
2023-04-25T17:37:41.074Z,4.40
2023-04-25T17:39:33.986Z,4.60
2023-04-25T17:41:26.930Z,4.10
2023-04-25T17:43:19.857Z,5.10
2023-04-25T17:45:13.822Z,5.20
2023-04-25T17:47:08.055Z,5.50
2023-04-25T17:49:02.175Z,4.90
2023-04-25T17:50:55.018Z,4.70
2023-04-25T17:52:48.726Z,4.90
2023-04-25T17:54:42.246Z,4.40
2023-04-25T17:56:38.477Z,6.50
2023-04-25T17:58:31.321Z,7.30
2023-04-25T18:00:24.785Z,7.90
2023-04-25T18:02:17.895Z,6.70
2023-04-25T18:04:10.997Z,6.40
2023-04-25T18:06:04.850Z,5.30
2023-04-25T18:07:57.811Z,5.60
2023-04-25T18:09:50.784Z,4.80
2023-04-25T18:11:47.489Z,5.30
2023-04-25T18:13:40.986Z,5.70
2023-04-25T18:15:34.638Z,5.60
2023-04-25T18:17:27.925Z,5.60
2023-04-25T18:19:21.844Z,5.50
2023-04-25T18:21:14.775Z,5.60
2023-04-25T18:23:08.964Z,6.00
2023-04-25T18:25:04.568Z,5.70
2023-04-25T18:27:00.889Z,5.50
2023-04-25T18:28:54.175Z,6.00
2023-04-25T18:30:47.416Z,6.70
2023-04-25T18:32:42.356Z,6.90
2023-04-25T18:34:35.466Z,7.10
2023-04-25T18:36:28.898Z,9.50
2023-04-25T18:38:34.875Z,9.50
2023-04-25T18:40:28.676Z,9.50
2023-04-25T18:42:22.408Z,9.80
2023-04-25T18:44:15.253Z,10.60
2023-04-25T18:46:08.522Z,10.60
2023-04-25T18:48:02.618Z,9.60
2023-04-25T18:49:55.738Z,9.80
2023-04-25T18:51:49.125Z,10.80
2023-04-25T18:53:42.468Z,13.60
2023-04-25T18:55:35.509Z,20.40
2023-04-25T18:57:28.771Z,11.50
2023-04-25T18:59:22.129Z,10.50
2023-04-25T19:01:15.900Z,9.20
2023-04-25T19:03:09.122Z,9.40
2023-04-25T19:05:02.904Z,9.00
2023-04-25T19:06:56.474Z,9.40
2023-04-25T19:08:51.551Z,8.70
2023-04-25T19:10:44.614Z,9.20
2023-04-25T19:12:37.974Z,8.80
2023-04-25T19:14:32.882Z,8.10
2023-04-25T19:16:27.531Z,8.60
2023-04-25T19:18:20.501Z,11.50
2023-04-25T19:20:16.524Z,11.60
2023-04-25T19:22:09.476Z,13.00
2023-04-25T19:24:07.212Z,13.60
2023-04-25T19:26:00.199Z,13.40
2023-04-25T19:27:54.675Z,14.60
2023-04-25T19:29:48.436Z,15.50
2023-04-25T19:31:45.555Z,18.00
2023-04-25T19:33:39.658Z,18.50
2023-04-25T19:35:34.085Z,14.10
2023-04-25T19:37:29.851Z,15.70
2023-04-25T19:39:23.327Z,14.80
2023-04-25T19:41:16.773Z,14.30
2023-04-25T19:43:10.741Z,17.30
2023-04-25T19:45:05.892Z,19.30
2023-04-25T19:47:00.656Z,19.40
2023-04-25T19:48:53.895Z,15.40
2023-04-25T19:50:46.834Z,12.70
2023-04-25T19:52:39.890Z,11.90
2023-04-25T19:54:35.703Z,11.20
2023-04-25T19:56:29.776Z,12.50
2023-04-25T20:03:44.370Z,7.90
2023-04-25T20:05:45.281Z,8.90
2023-04-25T20:07:43.671Z,7.80
2023-04-25T20:09:42.096Z,7.20
2023-04-25T20:11:36.465Z,7.60
2023-04-25T20:13:43.889Z,7.00
2023-04-25T20:15:52.072Z,7.60
2023-04-25T20:17:45.807Z,7.50
2023-04-25T20:19:39.975Z,6.60
2023-04-25T20:21:35.887Z,7.10
2023-04-25T20:23:28.937Z,6.30
2023-04-25T20:25:21.988Z,5.50
2023-04-25T20:27:14.856Z,6.00
2023-04-25T20:29:07.986Z,6.20
2023-04-25T20:31:01.756Z,5.70
2023-04-25T20:32:54.746Z,5.40
2023-04-25T20:34:47.587Z,5.50
2023-04-25T20:36:40.399Z,5.70
2023-04-25T20:38:33.345Z,5.40
2023-04-25T20:40:27.009Z,5.70
2023-04-25T20:42:19.959Z,7.30
2023-04-25T20:44:13.111Z,7.70
2023-04-25T20:46:06.554Z,5.60
2023-04-25T20:47:59.741Z,6.30
2023-04-25T20:49:53.019Z,5.40
2023-04-25T20:51:45.962Z,5.20
2023-04-25T20:53:38.781Z,5.00
2023-04-25T20:55:31.670Z,5.40
2023-04-25T20:57:25.002Z,4.50
2023-04-25T20:59:17.931Z,5.10
2023-04-25T21:01:11.563Z,5.00
2023-04-25T21:03:05.644Z,5.10
2023-04-25T21:04:58.722Z,4.20
2023-04-25T21:06:51.871Z,6.90
2023-04-25T21:08:44.920Z,5.90
2023-04-25T21:10:37.870Z,5.10
2023-04-25T21:12:30.746Z,4.70
2023-04-25T21:14:25.624Z,4.80
2023-04-25T21:16:19.045Z,5.30
2023-04-25T21:18:12.037Z,4.80
2023-04-25T21:20:10.398Z,5.70
2023-04-25T21:23:57.727Z,3.80
2023-04-25T21:25:52.105Z,4.10
2023-04-25T21:27:46.651Z,4.60
2023-04-25T21:29:39.419Z,5.20
2023-04-25T21:31:32.599Z,5.10
2023-04-25T21:33:25.641Z,5.20
2023-04-25T21:35:19.813Z,4.70
2023-04-25T21:37:13.278Z,4.60
2023-04-25T21:39:06.220Z,5.00
2023-04-25T21:40:59.386Z,5.10
2023-04-25T21:42:53.660Z,4.30
2023-04-25T21:44:46.610Z,5.00
2023-04-25T21:46:39.477Z,5.20
2023-04-25T21:48:32.399Z,5.40
2023-04-25T21:50:25.551Z,4.90
2023-04-25T21:52:18.408Z,5.20
2023-04-25T21:54:11.443Z,4.40
2023-04-25T21:56:04.344Z,4.50
2023-04-25T21:57:57.242Z,4.40
2023-04-25T21:59:50.303Z,4.80
2023-04-25T22:01:43.797Z,4.50
2023-04-25T22:03:36.806Z,4.50
2023-04-25T22:05:29.851Z,4.60
2023-04-25T22:07:22.900Z,5.00
2023-04-25T22:09:17.738Z,6.60
2023-04-25T22:11:10.644Z,4.80
2023-04-25T22:13:03.488Z,5.20
2023-04-25T22:14:56.330Z,5.40
2023-04-25T22:16:54.506Z,5.40
2023-04-25T22:18:48.489Z,5.50
2023-04-25T22:20:42.343Z,4.90
2023-04-25T22:22:35.291Z,5.30
2023-04-25T22:24:29.989Z,4.90
2023-04-25T22:26:25.564Z,5.30
2023-04-25T22:28:18.438Z,5.10
2023-04-25T22:30:15.076Z,4.90
2023-04-25T22:32:08.120Z,5.10
2023-04-25T22:34:01.171Z,5.50
2023-04-25T22:35:54.025Z,5.10
2023-04-25T22:37:46.870Z,5.00
2023-04-25T22:39:40.530Z,5.20
2023-04-25T22:41:33.472Z,5.80
2023-04-25T22:43:28.265Z,6.00
2023-04-25T22:45:21.213Z,5.00
2023-04-25T22:47:14.059Z,5.00
2023-04-25T22:49:06.938Z,5.00
2023-04-25T22:51:06.721Z,4.60
2023-04-25T22:52:59.565Z,4.90
2023-04-25T22:54:52.921Z,5.00
2023-04-25T22:56:46.168Z,4.30
2023-04-25T22:58:43.635Z,4.30
2023-04-25T23:00:37.873Z,4.50
2023-04-25T23:02:30.914Z,3.80
2023-04-25T23:04:24.582Z,4.00
2023-04-25T23:06:19.085Z,3.60
2023-04-25T23:08:12.466Z,4.00
2023-04-25T23:10:07.660Z,4.00
2023-04-25T23:12:00.519Z,3.80
2023-04-25T23:13:53.667Z,3.90
2023-04-25T23:15:46.927Z,3.70
2023-04-25T23:17:40.857Z,3.40
2023-04-25T23:19:34.468Z,3.40
2023-04-25T23:21:28.330Z,3.90
2023-04-25T23:23:21.342Z,3.70
2023-04-25T23:25:15.052Z,3.80
2023-04-25T23:27:08.209Z,4.00
2023-04-25T23:29:01.045Z,4.10
2023-04-25T23:30:53.908Z,4.00
2023-04-25T23:32:46.926Z,4.20
2023-04-25T23:34:39.884Z,3.70
2023-04-25T23:36:32.832Z,3.80
2023-04-25T23:38:26.189Z,3.90
2023-04-25T23:40:19.361Z,3.50
2023-04-25T23:42:12.597Z,3.60
2023-04-25T23:44:07.910Z,4.10
2023-04-25T23:46:00.835Z,3.60
2023-04-25T23:47:53.860Z,2.90
2023-04-25T23:49:46.746Z,3.40
2023-04-25T23:51:39.724Z,3.20
2023-04-25T23:53:32.644Z,3.20
2023-04-25T23:55:26.203Z,3.50
2023-04-25T23:57:19.205Z,3.20
2023-04-25T23:59:12.114Z,2.60
